Terminal Aerodrome Forecast
Issued by NWS

Home | Current Version | Previous Version | Text Only | Print | Product List | Glossary On
Versions: 1 2 3 4 5 6 7 8 9 10 11 12 13 14 15 16
000
FTUS45 KPSR 011300 AAA
TAFIPL
TAF AMD
KIPL 011300Z 0113/0212 30005KT P6SM VCSH BKN060 OVC080
     FM011500 30006KT 6SM -RA SCT010 BKN030 OVC060
      TEMPO 0121/0201 3SM RA BKN010 OVC030
     FM020600 25005KT P6SM VCSH SCT030 BKN050
     FM020900 24005KT P6SM SCT060 BKN100=

USA.gov is the U.S. government's official web portal to all federal, state and local government web resources and services.